Time;durP1;ratioP1;P1;durP2;ratioP2;P2;SDS_P1;SDS_P2;PMS_P1;PMS_P2;Temp;Humidity;BMP_temperature;BMP_pressure;BME280_temperature;BME280_humidity;BME280_pressure;Samples;Min_cycle;Max_cycle;Signal;HPM_P1;HPM_P2
2023/06/27 00:03:34;;;;;;;0.88;0.20;;;;;;;24.56;38.00;101989.00;16103644;19;129826;-53
2023/06/27 00:08:56;;;;;;;1.10;0.20;;;;;;;24.55;38.20;101984.56;16103828;19;130601;-56
2023/06/27 00:14:19;;;;;;;2.40;0.35;;;;;;;24.53;37.88;101984.78;16104516;19;129542;-55
2023/06/27 00:19:41;;;;;;;0.57;0.32;;;;;;;24.52;37.88;101988.69;16101742;19;129853;-54
2023/06/27 00:25:04;;;;;;;0.22;0.13;;;;;;;24.52;38.03;101983.09;16108674;19;130319;-54
2023/06/27 00:30:26;;;;;;;0.25;0.20;;;;;;;24.51;38.03;101987.00;16104631;19;129740;-54
2023/06/27 00:35:48;;;;;;;0.25;0.10;;;;;;;24.50;38.06;101981.69;16108307;19;130630;-56
2023/06/27 00:41:10;;;;;;;0.93;0.30;;;;;;;24.49;37.77;101983.66;16105387;19;129478;-52
2023/06/27 00:46:37;;;;;;;1.73;0.15;;;;;;;24.48;37.85;101987.53;16102726;19;129868;-54
2023/06/27 00:51:59;;;;;;;1.52;0.20;;;;;;;24.48;38.07;101984.75;16099755;19;132445;-52
2023/06/27 00:57:21;;;;;;;0.28;0.20;;;;;;;24.46;37.98;101989.75;16108989;19;130437;-54
2023/06/27 01:02:47;;;;;;;0.50;0.10;;;;;;;24.46;38.37;101984.16;16117908;19;130102;-51
2023/06/27 01:08:38;;;;;;;0.28;0.20;;;;;;;24.47;38.06;101993.38;16121363;19;130306;-55
2023/06/27 01:14:03;;;;;;;0.10;0.10;;;;;;;24.45;38.16;101998.38;16122750;19;130166;-53
2023/06/27 01:19:30;;;;;;;0.63;0.30;;;;;;;24.43;38.25;101995.88;16118141;19;131018;-55
2023/06/27 01:24:52;;;;;;;0.20;0.20;;;;;;;24.43;38.24;102001.47;16114490;19;130170;-55
2023/06/27 01:30:17;;;;;;;0.30;0.20;;;;;;;24.42;38.44;102002.56;16114819;19;134285;-55
2023/06/27 01:35:48;;;;;;;0.45;0.20;;;;;;;24.40;38.14;101990.78;16112394;19;129890;-51
2023/06/27 01:41:16;;;;;;;0.45;0.20;;;;;;;24.39;38.14;101991.88;16117886;19;129615;-56
2023/06/27 01:46:38;;;;;;;0.52;0.20;;;;;;;24.39;38.19;101994.69;16112881;19;129889;-51
2023/06/27 01:52:00;;;;;;;0.20;0.20;;;;;;;24.38;38.26;101984.59;16118121;19;130166;-53
2023/06/27 01:57:22;;;;;;;0.28;0.22;;;;;;;24.36;38.16;101982.06;16120740;19;130861;-56
2023/06/27 02:02:44;;;;;;;0.40;0.20;;;;;;;24.36;38.36;101984.88;16121042;19;129649;-55
2023/06/27 02:08:06;;;;;;;1.13;0.20;;;;;;;24.35;38.30;101982.34;16115936;19;129525;-56
2023/06/27 02:13:28;;;;;;;0.70;0.20;;;;;;;24.34;38.14;101975.88;16116002;19;129800;-54
2023/06/27 02:18:50;;;;;;;0.20;0.20;;;;;;;24.33;38.45;101988.19;16117029;19;131168;-55
2023/06/27 02:24:12;;;;;;;0.47;0.20;;;;;;;24.34;38.27;101980.66;16117422;19;129844;-53
2023/06/27 02:29:34;;;;;;;0.77;0.30;;;;;;;24.32;38.31;101975.31;16116137;19;131680;-55
2023/06/27 02:34:56;;;;;;;1.30;0.20;;;;;;;24.31;38.37;101964.38;16114358;19;131148;-54
2023/06/27 02:40:18;;;;;;;0.40;0.20;;;;;;;24.31;38.49;101968.00;16110046;19;131175;-54
2023/06/27 02:45:41;;;;;;;0.77;0.30;;;;;;;24.29;38.49;101961.00;16108712;19;130353;-55
2023/06/27 02:51:03;;;;;;;0.65;0.28;;;;;;;24.27;38.16;101959.31;16114220;19;131550;-54
2023/06/27 02:56:25;;;;;;;0.47;0.25;;;;;;;24.27;38.51;101961.28;16114489;19;130949;-55
2023/06/27 03:01:47;;;;;;;1.77;0.30;;;;;;;24.27;38.53;101958.47;16115935;19;130891;-58
2023/06/27 03:07:09;;;;;;;1.17;0.30;;;;;;;24.26;38.55;101962.38;16114963;19;129567;-55
2023/06/27 03:12:31;;;;;;;0.73;0.20;;;;;;;24.24;38.66;101959.84;16115129;19;130397;-58
2023/06/27 03:17:53;;;;;;;0.40;0.20;;;;;;;24.23;38.33;101963.72;16111707;19;129874;-55
2023/06/27 03:23:15;;;;;;;1.33;0.30;;;;;;;24.23;38.37;101968.44;16108634;19;129425;-56
2023/06/27 03:28:37;;;;;;;0.52;0.20;;;;;;;24.22;38.64;101972.34;16111376;19;131329;-56
2023/06/27 03:33:59;;;;;;;0.45;0.20;;;;;;;24.21;38.76;101977.09;16109329;19;131770;-58
2023/06/27 03:39:21;;;;;;;1.10;0.30;;;;;;;24.20;38.25;101978.22;16110950;19;131622;-55
2023/06/27 03:44:43;;;;;;;0.30;0.20;;;;;;;24.19;38.72;101968.13;16110840;19;131474;-57
2023/06/27 03:50:05;;;;;;;1.27;0.30;;;;;;;24.19;38.84;101973.72;16116129;19;129866;-57
2023/06/27 03:55:27;;;;;;;1.63;0.17;;;;;;;24.19;38.95;101975.66;16113743;19;129238;-57
2023/06/27 04:00:52;;;;;;;1.23;0.40;;;;;;;24.17;38.58;101970.31;16113318;19;134250;-57
2023/06/27 04:06:14;;;;;;;0.60;0.30;;;;;;;24.16;38.50;101974.22;16112001;19;129714;-51
2023/06/27 04:11:36;;;;;;;0.93;0.10;;;;;;;24.15;38.57;101980.91;16111421;19;129995;-52
2023/06/27 04:16:58;;;;;;;0.80;0.20;;;;;;;24.15;39.00;101972.53;16107989;19;130172;-52
2023/06/27 04:22:20;;;;;;;0.77;0.22;;;;;;;24.14;38.86;101982.03;16109720;19;130324;-55
2023/06/27 04:27:42;;;;;;;0.70;0.20;;;;;;;24.14;38.81;101972.81;16105460;19;129663;-50
2023/06/27 04:33:04;;;;;;;1.05;0.30;;;;;;;24.11;38.65;101982.56;16117476;19;129286;-51
2023/06/27 04:38:30;;;;;;;0.60;0.25;;;;;;;24.12;38.78;101984.25;16122925;19;130751;-49
2023/06/27 04:43:52;;;;;;;1.67;0.30;;;;;;;24.11;38.87;101988.16;16126456;19;130510;-52
2023/06/27 04:49:14;;;;;;;2.63;0.25;;;;;;;24.10;39.06;101981.69;16126742;19;133182;-53
2023/06/27 04:54:36;;;;;;;1.00;0.30;;;;;;;24.10;38.71;101990.09;16124349;19;130070;-54
2023/06/27 04:59:58;;;;;;;0.70;0.30;;;;;;;24.09;38.68;101991.19;16122462;19;130273;-54
2023/06/27 05:05:20;;;;;;;1.10;0.35;;;;;;;24.08;38.84;101983.91;16122450;19;130714;-55
2023/06/27 05:10:42;;;;;;;1.67;0.45;;;;;;;24.07;38.76;101986.97;16119195;19;130919;-53
2023/06/27 05:16:08;;;;;;;1.58;0.30;;;;;;;24.08;38.64;101991.47;16123691;19;129925;-52
2023/06/27 05:21:30;;;;;;;3.28;0.40;;;;;;;24.07;38.97;101975.78;16123233;19;131287;-51
2023/06/27 05:26:52;;;;;;;0.90;0.30;;;;;;;24.07;38.75;101987.81;16124756;19;129710;-54
2023/06/27 05:32:14;;;;;;;1.00;0.40;;;;;;;24.07;38.87;101986.97;16127092;19;133104;-53
2023/06/27 05:37:36;;;;;;;2.03;0.50;;;;;;;24.06;38.74;101985.28;16115222;19;129569;-53
2023/06/27 05:42:58;;;;;;;2.03;0.63;;;;;;;24.05;38.87;101983.59;16113791;19;130003;-53
2023/06/27 05:48:20;;;;;;;2.13;0.50;;;;;;;24.05;38.83;101983.59;16115667;19;129773;-54
2023/06/27 05:53:43;;;;;;;1.63;0.57;;;;;;;24.04;38.72;101984.69;16115670;19;131307;-54
2023/06/27 05:59:05;;;;;;;2.88;0.80;;;;;;;24.04;38.78;101993.94;16122765;19;129598;-54
2023/06/27 06:04:26;;;;;;;2.58;0.73;;;;;;;24.04;39.02;101995.88;16122205;19;129550;-53
2023/06/27 06:09:49;;;;;;;3.53;1.20;;;;;;;24.03;38.78;101996.97;16119366;19;130997;-55
2023/06/27 06:15:11;;;;;;;5.28;0.90;;;;;;;24.03;38.86;102002.56;16118020;19;129562;-53
2023/06/27 06:20:33;;;;;;;4.20;0.90;;;;;;;24.02;38.73;101992.47;16122185;19;129748;-54
2023/06/27 06:25:55;;;;;;;3.55;0.88;;;;;;;24.02;38.65;102007.31;16116582;19;130548;-53
2023/06/27 06:31:18;;;;;;;3.55;0.80;;;;;;;24.01;38.61;101997.22;16118399;19;129654;-53
2023/06/27 06:36:40;;;;;;;4.22;1.10;;;;;;;24.01;38.83;101993.56;16118820;19;129659;-53
2023/06/27 06:42:02;;;;;;;2.35;0.77;;;;;;;24.03;38.76;101996.97;16118485;19;131701;-49
2023/06/27 06:47:24;;;;;;;2.00;0.75;;;;;;;24.02;38.69;102009.25;16115485;19;131237;-56
2023/06/27 06:52:46;;;;;;;4.18;0.80;;;;;;;24.02;38.67;102009.25;16118405;19;129307;-53
2023/06/27 06:58:08;;;;;;;5.35;1.10;;;;;;;24.03;38.80;102010.94;16116559;19;130306;-55
2023/06/27 07:03:36;;;;;;;2.85;0.95;;;;;;;24.05;38.72;102004.00;16119599;19;129676;-57
2023/06/27 07:08:58;;;;;;;5.03;1.50;;;;;;;24.09;38.88;102012.72;16116236;19;129799;-53
2023/06/27 07:14:20;;;;;;;5.45;1.17;;;;;;;24.13;38.87;102005.50;16114650;19;131178;-58
2023/06/27 07:19:42;;;;;;;3.95;1.08;;;;;;;24.16;38.89;102002.19;16111056;19;130810;-56
2023/06/27 07:25:06;;;;;;;4.20;1.00;;;;;;;24.20;38.64;102008.97;16113236;19;130081;-56
2023/06/27 07:30:28;;;;;;;4.45;1.30;;;;;;;24.23;39.15;102014.03;16114249;19;129342;-58
2023/06/27 07:35:50;;;;;;;3.67;1.33;;;;;;;24.26;39.07;102024.72;16113753;19;130126;-56
2023/06/27 07:41:12;;;;;;;6.50;1.35;;;;;;;24.29;38.91;102017.78;16115038;19;130085;-56
2023/06/27 07:46:34;;;;;;;5.55;1.33;;;;;;;24.33;38.83;102006.91;16113680;19;130155;-55
2023/06/27 07:51:56;;;;;;;5.50;1.25;;;;;;;24.35;38.97;102010.31;16115196;19;129576;-55
2023/06/27 07:57:18;;;;;;;7.50;1.67;;;;;;;24.36;38.83;102001.66;16117365;19;129514;-54
2023/06/27 08:02:40;;;;;;;4.90;1.40;;;;;;;24.39;38.93;102003.06;16111673;19;130771;-52
2023/06/27 08:08:02;;;;;;;2.90;1.00;;;;;;;24.41;38.92;102003.66;16112283;19;130062;-53
2023/06/27 08:13:25;;;;;;;5.05;1.30;;;;;;;24.40;38.86;102015.94;16113090;19;129684;-57
2023/06/27 08:18:47;;;;;;;5.35;1.30;;;;;;;24.40;38.47;102005.63;16103739;19;130038;-54
2023/06/27 08:24:09;;;;;;;4.60;1.02;;;;;;;24.42;39.03;102005.34;16105329;19;133758;-53
2023/06/27 08:29:32;;;;;;;4.13;1.00;;;;;;;24.42;38.96;102005.34;16102516;19;129676;-58
2023/06/27 08:34:54;;;;;;;3.33;0.90;;;;;;;24.43;38.79;102004.25;16108291;19;130477;-57
2023/06/27 08:40:24;;;;;;;3.42;1.00;;;;;;;24.45;38.98;101987.19;16109628;19;129950;-50
2023/06/27 08:45:48;;;;;;;2.72;0.90;;;;;;;24.44;38.90;101986.38;16091457;19;130547;-41
2023/06/27 08:51:13;;;;;;;3.90;1.20;;;;;;;24.46;39.02;101994.47;16043306;19;131821;-45
2023/06/27 08:56:36;;;;;;;2.90;0.90;;;;;;;24.46;38.85;101992.56;16095382;19;129868;-44
2023/06/27 09:02:00;;;;;;;4.07;1.00;;;;;;;24.48;38.89;101989.47;16099276;19;129848;-43
2023/06/27 09:07:23;;;;;;;2.05;0.80;;;;;;;24.49;38.90;101983.66;16104929;19;130236;-45
2023/06/27 09:12:47;;;;;;;7.18;0.80;;;;;;;24.50;38.88;101988.09;16093797;19;131369;-43
2023/06/27 09:18:09;;;;;;;2.08;0.70;;;;;;;24.51;38.94;101991.75;16103131;19;133326;-44
2023/06/27 09:23:32;;;;;;;2.22;0.80;;;;;;;24.52;39.07;101985.91;16110100;19;130162;-41
2023/06/27 09:28:54;;;;;;;2.28;0.70;;;;;;;24.51;38.92;101995.41;16111927;19;131158;-43
2023/06/27 09:34:16;;;;;;;2.47;0.70;;;;;;;24.53;38.72;101997.94;16112766;19;129847;-44
2023/06/27 09:39:38;;;;;;;1.88;0.60;;;;;;;24.52;38.87;101991.50;16116653;19;129424;-41
2023/06/27 09:45:14;;;;;;;2.40;0.65;;;;;;;24.54;38.92;101983.69;16101973;19;130417;-41
2023/06/27 09:50:37;;;;;;;2.05;0.60;;;;;;;24.52;39.11;101988.69;16093359;19;130794;-44
2023/06/27 09:56:00;;;;;;;2.58;0.90;;;;;;;24.54;39.00;101989.28;16116318;19;129474;-43
2023/06/27 10:01:24;;;;;;;2.13;0.50;;;;;;;24.55;39.24;102004.97;16108317;19;131722;-46
2023/06/27 10:06:46;;;;;;;2.25;0.90;;;;;;;24.56;38.80;102001.06;16118121;19;129365;-44
2023/06/27 10:12:08;;;;;;;3.30;0.60;;;;;;;24.57;38.79;101999.97;16119966;19;129842;-47
2023/06/27 10:17:32;;;;;;;3.50;0.70;;;;;;;24.58;39.06;101998.84;16119016;19;131053;-42
2023/06/27 10:22:56;;;;;;;4.97;1.10;;;;;;;24.60;39.11;101994.94;16097585;19;130792;-40
2023/06/27 10:28:19;;;;;;;4.15;0.80;;;;;;;24.60;38.88;101989.34;16111637;19;130385;-46
2023/06/27 10:33:42;;;;;;;3.28;0.70;;;;;;;24.63;38.73;102000.00;16090102;19;130795;-45
2023/06/27 10:39:31;;;;;;;3.45;0.82;;;;;;;24.67;38.64;102002.03;16110835;19;131053;-41
2023/06/27 10:45:09;;;;;;;2.58;0.63;;;;;;;24.70;38.03;102006.25;16101541;19;130654;-42
2023/06/27 10:50:35;;;;;;;2.30;0.90;;;;;;;24.71;38.14;102003.19;16112529;19;129871;-44
2023/06/27 10:55:57;;;;;;;2.03;0.70;;;;;;;24.78;38.20;102000.19;16109882;19;130491;-43
2023/06/27 11:01:20;;;;;;;2.75;0.88;;;;;;;24.84;37.81;101999.16;16111664;19;132093;-44
2023/06/27 11:06:45;;;;;;;3.28;0.73;;;;;;;24.90;38.15;101994.47;16102551;19;130129;-44
2023/06/27 11:12:14;;;;;;;3.53;0.87;;;;;;;24.94;37.95;102000.41;16112502;19;129837;-43
2023/06/27 11:17:39;;;;;;;5.45;0.75;;;;;;;24.95;37.86;101993.69;16113209;19;130297;-45
2023/06/27 11:23:04;;;;;;;7.15;1.00;;;;;;;24.96;37.35;101993.41;16111268;19;129888;-44
2023/06/27 11:28:26;;;;;;;3.80;1.17;;;;;;;24.96;37.34;101992.59;16112220;19;129814;-42
2023/06/27 11:33:56;;;;;;;3.50;0.98;;;;;;;24.99;36.98;101997.63;16097134;19;130736;-42
2023/06/27 11:39:18;;;;;;;6.93;1.38;;;;;;;24.99;37.15;101997.63;16106408;19;130382;-40
2023/06/27 11:44:40;;;;;;;4.72;1.02;;;;;;;24.99;37.07;101984.50;16099098;19;129434;-43
2023/06/27 11:50:10;;;;;;;4.50;1.42;;;;;;;24.98;36.91;101988.41;16107138;19;130275;-43
2023/06/27 11:55:41;;;;;;;2.20;0.70;;;;;;;24.96;36.86;101981.38;16107774;19;129329;-42
2023/06/27 12:01:14;;;;;;;9.15;1.42;;;;;;;24.95;36.86;101982.50;16110323;19;129429;-42
2023/06/27 12:06:36;;;;;;;3.95;0.85;;;;;;;24.96;36.97;101978.59;16104740;19;130631;-41
2023/06/27 12:11:59;;;;;;;4.53;0.85;;;;;;;24.98;37.18;101981.97;16106789;19;130969;-45
2023/06/27 12:17:21;;;;;;;4.05;1.13;;;;;;;24.99;37.19;101981.69;16106290;19;131612;-40
2023/06/27 12:22:43;;;;;;;2.60;0.52;;;;;;;24.99;37.31;101964.03;16105962;19;131588;-48
2023/06/27 12:28:06;;;;;;;2.35;0.70;;;;;;;24.98;37.06;101962.38;16108152;19;129830;-41
2023/06/27 12:33:29;;;;;;;3.13;0.77;;;;;;;24.98;37.22;101965.19;16109991;19;129565;-42
2023/06/27 12:38:51;;;;;;;4.18;0.80;;;;;;;24.97;37.13;101961.50;16103081;19;129434;-45
2023/06/27 12:44:14;;;;;;;3.78;1.10;;;;;;;24.96;36.90;101964.59;16103293;19;130726;-44
2023/06/27 12:49:36;;;;;;;3.13;0.90;;;;;;;24.95;37.02;101954.50;16103592;19;131185;-46
2023/06/27 12:54:58;;;;;;;3.50;1.08;;;;;;;24.97;36.96;101946.69;16116476;19;129928;-45
2023/06/27 13:00:21;;;;;;;2.00;0.60;;;;;;;24.98;37.04;101938.00;16119207;19;130509;-44
2023/06/27 13:05:43;;;;;;;5.57;1.10;;;;;;;25.01;36.83;101939.44;16118163;19;130455;-46
2023/06/27 13:11:05;;;;;;;4.47;1.25;;;;;;;25.05;36.52;101935.00;16117925;19;130531;-44
2023/06/27 13:16:27;;;;;;;5.20;1.05;;;;;;;25.05;36.49;101932.19;16119383;19;131074;-46
2023/06/27 13:21:50;;;;;;;1.85;0.80;;;;;;;25.08;36.61;101931.66;16112392;19;131078;-45
2023/06/27 13:27:13;;;;;;;2.88;0.80;;;;;;;25.06;36.84;101925.50;16122622;19;130960;-46
2023/06/27 13:32:35;;;;;;;3.40;1.00;;;;;;;25.06;36.48;101925.50;16122482;19;129818;-42
2023/06/27 13:37:57;;;;;;;3.85;0.82;;;;;;;25.08;36.57;101923.28;16114881;19;129693;-42
2023/06/27 13:43:22;;;;;;;2.90;0.82;;;;;;;25.08;36.33;101923.28;16112009;19;130630;-42
2023/06/27 13:48:44;;;;;;;2.75;0.88;;;;;;;25.10;36.33;101915.44;16115398;19;130592;-43
2023/06/27 13:54:06;;;;;;;1.52;0.55;;;;;;;25.10;36.28;101915.44;16119294;19;131682;-44
2023/06/27 13:59:28;;;;;;;2.67;0.73;;;;;;;25.09;36.47;101916.56;16120810;19;129673;-46
2023/06/27 14:04:51;;;;;;;6.15;0.85;;;;;;;25.07;36.52;101915.97;16113796;19;129283;-45
2023/06/27 14:10:13;;;;;;;4.88;0.80;;;;;;;25.04;36.46;101908.09;16116991;19;131379;-42
2023/06/27 14:15:36;;;;;;;3.03;0.90;;;;;;;25.01;36.45;101915.09;16116235;19;129499;-43
2023/06/27 14:20:58;;;;;;;3.05;0.80;;;;;;;24.98;36.32;101900.78;16118830;19;131214;-46
2023/06/27 14:26:20;;;;;;;1.27;0.65;;;;;;;24.96;36.16;101914.19;16113513;19;129480;-43
2023/06/27 14:31:42;;;;;;;2.85;0.65;;;;;;;24.96;36.21;101906.63;16113460;19;131426;-44
2023/06/27 14:37:04;;;;;;;1.30;0.52;;;;;;;24.98;36.30;101898.00;16113136;19;130307;-42
2023/06/27 14:42:26;;;;;;;3.15;0.95;;;;;;;24.99;36.46;101885.66;16114786;19;129437;-44
2023/06/27 14:47:48;;;;;;;1.83;0.70;;;;;;;24.98;36.35;101884.00;16114839;19;129905;-47
2023/06/27 14:53:10;;;;;;;1.95;0.77;;;;;;;24.98;35.99;101884.81;16113369;19;130110;-44
2023/06/27 14:58:32;;;;;;;3.05;0.90;;;;;;;24.99;36.21;101869.72;16116821;19;130700;-47
2023/06/27 15:03:54;;;;;;;2.28;0.55;;;;;;;24.99;35.92;101880.06;16116849;19;133660;-50
2023/06/27 15:09:17;;;;;;;2.33;0.73;;;;;;;24.98;36.19;101867.19;16113374;19;133569;-50
2023/06/27 15:14:39;;;;;;;4.97;0.95;;;;;;;24.96;36.29;101863.81;16101526;19;129918;-45
2023/06/27 15:20:01;;;;;;;0.85;0.60;;;;;;;24.96;35.92;101863.81;16113797;19;130948;-51
2023/06/27 15:25:23;;;;;;;2.00;0.65;;;;;;;24.98;35.67;101856.00;16117367;19;130997;-47
2023/06/27 15:30:45;;;;;;;2.80;0.60;;;;;;;25.04;35.70;101854.91;16112686;19;129990;-45
2023/06/27 15:36:07;;;;;;;1.98;0.57;;;;;;;25.07;35.93;101853.53;16113379;19;130917;-44
2023/06/27 15:41:29;;;;;;;2.03;0.70;;;;;;;25.08;35.91;101855.22;16113161;19;129309;-43
2023/06/27 15:46:51;;;;;;;3.22;0.88;;;;;;;25.06;35.91;101852.69;16107837;19;129840;-42
2023/06/27 15:52:13;;;;;;;2.08;0.60;;;;;;;25.04;35.98;101843.72;16102839;19;130038;-45
2023/06/27 15:57:35;;;;;;;4.88;1.05;;;;;;;25.01;35.89;101839.50;16097939;19;130001;-45
2023/06/27 16:02:57;;;;;;;6.13;0.93;;;;;;;25.00;35.72;101831.34;16107722;19;130025;-42
2023/06/27 16:08:19;;;;;;;8.85;1.60;;;;;;;24.72;33.95;101838.97;16107061;19;130004;-44
2023/06/27 16:13:41;;;;;;;6.10;1.48;;;;;;;24.68;34.31;101829.41;16109640;19;129522;-51
2023/06/27 16:19:03;;;;;;;5.28;1.30;;;;;;;24.72;34.36;101830.56;16108037;19;131223;-46
2023/06/27 16:24:25;;;;;;;5.47;1.27;;;;;;;24.76;34.38;101830.88;16108635;19;130293;-45
2023/06/27 16:29:47;;;;;;;5.85;1.25;;;;;;;24.78;34.31;101809.06;16094403;19;130339;-44
2023/06/27 16:35:09;;;;;;;6.63;1.40;;;;;;;24.79;34.60;101811.59;16105009;19;131742;-46
2023/06/27 16:40:34;;;;;;;4.55;1.02;;;;;;;24.80;34.45;101810.47;16101434;19;130735;-44
2023/06/27 16:45:56;;;;;;;5.23;1.13;;;;;;;24.80;34.13;101810.47;16104743;19;130617;-43
2023/06/27 16:51:18;;;;;;;4.00;1.08;;;;;;;24.81;34.44;101812.16;16105067;19;129983;-42
2023/06/27 16:56:40;;;;;;;4.95;1.10;;;;;;;24.79;34.14;101814.38;16107832;19;129943;-43
2023/06/27 17:02:02;;;;;;;4.30;0.95;;;;;;;24.78;34.31;101821.09;16105476;19;129598;-47
2023/06/27 17:07:24;;;;;;;2.53;0.90;;;;;;;24.77;33.95;101822.19;16105940;19;130949;-44
2023/06/27 17:12:46;;;;;;;17.13;1.40;;;;;;;24.72;34.06;101823.00;16100527;19;130624;-44
2023/06/27 17:18:08;;;;;;;9.95;1.58;;;;;;;24.71;34.13;101837.25;16100554;19;129397;-46
2023/06/27 17:23:29;;;;;;;7.00;1.63;;;;;;;24.69;33.62;101831.09;16103974;19;130336;-49
2023/06/27 17:28:51;;;;;;;7.38;1.30;;;;;;;24.69;33.65;101833.88;16104772;19;129590;-43
2023/06/27 17:34:13;;;;;;;11.32;1.55;;;;;;;24.65;33.78;101829.91;16107719;19;129738;-48
2023/06/27 17:39:35;;;;;;;5.38;1.20;;;;;;;24.63;33.35;101826.53;16107337;19;130513;-45
2023/06/27 17:44:57;;;;;;;4.22;1.30;;;;;;;24.61;33.21;101828.78;16117863;19;130272;-45
2023/06/27 17:50:19;;;;;;;5.45;1.55;;;;;;;24.60;32.95;101833.53;16117514;19;130523;-47
2023/06/27 17:55:43;;;;;;;5.13;1.13;;;;;;;24.58;32.63;101835.72;16114814;19;131783;-47
2023/06/27 18:01:05;;;;;;;9.88;1.70;;;;;;;24.56;32.57;101838.81;16119128;19;130665;-45
2023/06/27 18:06:27;;;;;;;5.50;1.15;;;;;;;24.53;32.39;101856.13;16112557;19;130155;-46
2023/06/27 18:11:49;;;;;;;6.25;1.38;;;;;;;24.53;32.54;101838.50;16113532;19;129515;-50
2023/06/27 18:17:11;;;;;;;6.55;1.20;;;;;;;24.49;32.52;101852.19;16115315;19;129806;-49
2023/06/27 18:22:33;;;;;;;5.28;1.20;;;;;;;24.48;32.49;101839.28;16116351;19;129311;-47
2023/06/27 18:27:55;;;;;;;6.35;1.25;;;;;;;24.47;32.14;101840.41;16116370;19;131467;-46
2023/06/27 18:33:17;;;;;;;3.53;1.10;;;;;;;24.46;32.19;101849.91;16120006;19;129934;-47
2023/06/27 18:38:41;;;;;;;5.97;1.30;;;;;;;24.45;32.16;101852.94;16119942;19;130685;-48
2023/06/27 18:44:03;;;;;;;6.40;1.05;;;;;;;24.43;32.01;101856.84;16116874;19;129677;-47
2023/06/27 18:49:25;;;;;;;12.63;1.42;;;;;;;24.41;31.96;101872.22;16111934;19;130856;-46
2023/06/27 18:54:47;;;;;;;6.40;0.95;;;;;;;24.41;32.21;101881.47;16107494;19;129682;-42
2023/06/27 19:00:09;;;;;;;8.55;1.10;;;;;;;24.39;32.30;101878.09;16113331;19;130072;-44
2023/06/27 19:05:33;;;;;;;6.50;1.27;;;;;;;24.37;31.96;101874.69;16091075;19;130749;-46
2023/06/27 19:10:54;;;;;;;3.85;1.02;;;;;;;24.35;32.04;101874.09;16107955;19;130933;-45
2023/06/27 19:16:16;;;;;;;7.82;0.80;;;;;;;24.34;31.86;101868.78;16107839;19;131254;-44
2023/06/27 19:21:39;;;;;;;8.32;0.95;;;;;;;24.34;31.68;101874.38;16118295;19;130805;-44
2023/06/27 19:27:01;;;;;;;9.20;1.10;;;;;;;24.31;31.86;101869.31;16114362;19;131052;-44
2023/06/27 19:32:23;;;;;;;4.68;1.13;;;;;;;24.28;31.80;101862.28;16111503;19;131654;-43
2023/06/27 19:37:45;;;;;;;4.47;1.40;;;;;;;24.24;31.65;101859.19;16108034;19;129772;-45
2023/06/27 19:43:07;;;;;;;3.28;1.05;;;;;;;24.22;31.38;101864.16;16111731;19;131188;-46
2023/06/27 19:48:28;;;;;;;4.68;1.00;;;;;;;24.21;31.81;101878.38;16110484;19;129504;-47
2023/06/27 19:53:50;;;;;;;5.20;1.13;;;;;;;24.18;31.42;101876.97;16111940;19;129745;-42
2023/06/27 19:59:12;;;;;;;3.67;0.90;;;;;;;24.16;31.52;101883.94;16110570;19;131171;-45
2023/06/27 20:04:35;;;;;;;4.32;1.02;;;;;;;24.16;31.34;101883.94;16112404;19;131312;-50
2023/06/27 20:10:13;;;;;;;7.13;1.15;;;;;;;24.13;31.23;101879.69;16096960;19;131579;-43
2023/06/27 20:15:39;;;;;;;6.87;1.30;;;;;;;24.12;31.64;101880.81;16105516;19;130149;-47
2023/06/27 20:21:01;;;;;;;4.18;1.05;;;;;;;24.11;31.19;101879.97;16103620;19;133076;-50
2023/06/27 20:26:23;;;;;;;7.18;1.15;;;;;;;24.13;31.62;101871.31;16100702;19;129590;-45
2023/06/27 20:31:45;;;;;;;5.32;1.25;;;;;;;24.15;31.23;101876.66;16104419;19;131511;-42
2023/06/27 20:37:07;;;;;;;4.25;0.90;;;;;;;24.16;31.67;101868.00;16106637;19;129291;-41
2023/06/27 20:42:29;;;;;;;2.55;0.95;;;;;;;24.19;31.73;101884.25;16108863;19;130836;-45
2023/06/27 20:47:51;;;;;;;3.65;0.95;;;;;;;24.20;31.29;101876.69;16108185;19;129412;-42
2023/06/27 20:53:13;;;;;;;2.75;0.80;;;;;;;24.21;31.59;101882.03;16106460;19;130880;-43
2023/06/27 20:58:35;;;;;;;3.75;0.95;;;;;;;24.22;31.71;101883.72;16110528;19;129661;-43
2023/06/27 21:03:57;;;;;;;4.30;0.70;;;;;;;24.23;31.98;101892.94;16106436;19;130364;-43
2023/06/27 21:09:21;;;;;;;4.40;0.82;;;;;;;24.22;31.90;101889.31;16109472;19;129600;-44
2023/06/27 21:14:43;;;;;;;5.32;1.00;;;;;;;24.22;32.22;101889.31;16110479;19;130331;-43
2023/06/27 21:20:06;;;;;;;1.35;0.68;;;;;;;24.23;32.22;101893.81;16121512;19;129000;-42
2023/06/27 21:25:28;;;;;;;3.53;0.60;;;;;;;24.21;32.16;101886.78;16121056;19;130067;-41
2023/06/27 21:30:51;;;;;;;2.47;0.77;;;;;;;24.21;32.26;101890.44;16119379;19;131246;-42
2023/06/27 21:36:13;;;;;;;2.08;0.60;;;;;;;24.21;32.32;101886.78;16117219;19;131584;-45
2023/06/27 21:41:35;;;;;;;2.38;0.60;;;;;;;24.21;32.52;101892.38;16121834;19;129526;-47
2023/06/27 21:46:56;;;;;;;2.30;0.70;;;;;;;24.19;32.78;101884.25;16117568;19;130733;-44
2023/06/27 21:52:18;;;;;;;1.23;0.68;;;;;;;24.19;32.84;101884.25;16120926;19;129738;-44
2023/06/27 21:57:40;;;;;;;1.83;0.40;;;;;;;24.18;32.93;101879.75;16119955;19;129340;-41
2023/06/27 22:03:02;;;;;;;2.30;0.65;;;;;;;24.18;33.05;101882.56;16115219;19;129347;-43
2023/06/27 22:08:24;;;;;;;1.83;0.65;;;;;;;24.18;32.85;101871.38;16116432;19;130397;-43
2023/06/27 22:13:46;;;;;;;2.17;0.52;;;;;;;24.18;33.10;101881.72;16116426;19;129970;-43
2023/06/27 22:19:08;;;;;;;1.45;0.50;;;;;;;24.16;33.21;101881.97;16115170;19;129399;-44
2023/06/27 22:24:31;;;;;;;1.55;0.32;;;;;;;24.16;33.28;101881.97;16110271;19;130306;-41
2023/06/27 22:29:53;;;;;;;1.00;0.30;;;;;;;24.15;33.36;101887.84;16112861;19;130472;-42
2023/06/27 22:35:15;;;;;;;3.20;0.40;;;;;;;24.15;33.67;101885.88;16116197;19;130666;-42
2023/06/27 22:40:37;;;;;;;0.52;0.40;;;;;;;24.15;33.34;101885.03;16113549;19;130205;-42
2023/06/27 22:45:58;;;;;;;1.83;0.40;;;;;;;24.14;33.81;101884.16;16112346;19;130663;-42
2023/06/27 22:51:20;;;;;;;1.17;0.30;;;;;;;24.13;33.75;101874.09;16113128;19;129785;-44
2023/06/27 22:56:42;;;;;;;0.75;0.30;;;;;;;24.13;34.11;101874.09;16116115;19;129483;-42
2023/06/27 23:02:04;;;;;;;1.15;0.40;;;;;;;24.12;33.93;101878.84;16114214;19;131093;-40
2023/06/27 23:07:26;;;;;;;0.88;0.30;;;;;;;24.10;33.80;101880.22;16113658;19;131285;-41
2023/06/27 23:12:49;;;;;;;0.65;0.40;;;;;;;24.09;34.04;101867.34;16111493;19;130545;-40
2023/06/27 23:18:16;;;;;;;1.45;0.45;;;;;;;24.10;34.07;101866.25;16106966;19;129273;-42
2023/06/27 23:23:40;;;;;;;0.57;0.20;;;;;;;24.09;34.23;101858.97;16108419;19;129723;-42
2023/06/27 23:29:05;;;;;;;0.40;0.17;;;;;;;24.08;34.35;101854.47;16106401;19;130146;-40
2023/06/27 23:34:27;;;;;;;0.73;0.25;;;;;;;24.07;34.34;101841.63;16110031;19;129576;-39
2023/06/27 23:39:49;;;;;;;0.95;0.32;;;;;;;24.06;34.49;101843.53;16109927;19;134464;-41
2023/06/27 23:45:11;;;;;;;0.47;0.30;;;;;;;24.05;34.49;101846.63;16110945;19;129657;-42
2023/06/27 23:50:33;;;;;;;0.40;0.20;;;;;;;24.05;34.64;101855.00;16113394;19;130279;-40
2023/06/27 23:55:55;;;;;;;0.43;0.20;;;;;;;24.05;34.79;101853.06;16108432;19;130070;-42
